Bonner Springs, KS (66012)

2:38 AM CDT on August 05, 2015 (GMT -0500)
Brittany Heights | | Change Station
CLOSE
Current Station
Personal Weather Station
Location: Shawnee, KS
Elevation: 853 ft
Nearby Weather Stations

Elev 853 ft 39.04 °N, 94.84 °W | Updated 1 minute ago

Mostly Cloudy
Mostly Cloudy
69.4 °F
Feels Like 69.4 °F
N
0.0
Wind Variable Wind from NNE

Today
High -- | Low -- °F
--% Chance of Precip.
Yesterday
High -- | Low -- °F
Precip. -- in
6:23 AM 8:26 PM
Waning Gibbous, 70% visible
Pressure 29.99 in
Visibility 7.0 miles
Clouds Mostly Cloudy 800 ft
Overcast 6000 ft
Dew Point 69 °F
Humidity 99%
Rainfall 0.00 in
Snow Depth Not available.
UV 0 out of 12
Pollen 6.50 out of 12
Air Quality Not available.
Flu Activity Not available.
SPECI KIXD 050704Z AUTO 11006KT 7SM BKN008 OVC060 22/21 A2999 RMK AO2 T02170206

More Conditions Fewer Conditions

Pressure 29.99 in
Visibility 7.0 miles
Clouds Mostly Cloudy 800 ft
Overcast 6000 ft
Dew Point 69 °F
Humidity 99%
Rainfall 0.00 in
Snow Depth Not available.
UV 0 out of 12
Pollen 6.50 out of 12
Air Quality Not available.
Flu Activity Not available.
SPECI KIXD 050704Z AUTO 11006KT 7SM BKN008 OVC060 22/21 A2999 RMK AO2 T02170206

More Conditions Fewer Conditions

10-Day Weather Forecast

×

Almanac

Astronomy

Aug. 05, 2015 Rise Set
Actual Time
Civil Twilight
Nautical Twilight
Astronomical Twilight
Moon
Length of Visible Light
Length of Day
Tomorrow will be .
, % of the Moon is Illuminated

Today's Extremes

State Highs State Lows

Community

WunderPhotos

Upload Photos

1,844,105 photos uploaded!

WunderBlogs® & News

Nearby

Air Quality

  Air Quality AQ Index Pollutant
Not available.

Snow Depth

Station Depth Elevation

Earthquake Activity

City Distance Mag. Time & Date
Minimum magnitude displayed is 2.5.

Coastal Water Temperatures

Place Temperature

Stations

Nearby Weather Stations

Station Location Temp. Windchill Dew Point Humidity Wind Precip. Elev Updated Type